Time;durP1;ratioP1;P1;durP2;ratioP2;P2;SDS_P1;SDS_P2;PMS_P1;PMS_P2;Temp;Humidity;BMP_temperature;BMP_pressure;BME280_temperature;BME280_humidity;BME280_pressure;Samples;Min_cycle;Max_cycle;Signal;HPM_P1;HPM_P2
2021/03/31 00:02:18;;;;;;;2.28;2.17;;;;;;;19.62;34.05;97092.44;5062082;28;20032;-53
2021/03/31 00:04:44;;;;;;;2.40;2.20;;;;;;;19.61;33.82;97088.06;5060943;28;20044;-56
2021/03/31 00:07:10;;;;;;;2.20;2.08;;;;;;;19.59;33.82;97090.25;5060081;28;20060;-53
2021/03/31 00:09:36;;;;;;;2.22;1.85;;;;;;;19.58;34.20;97094.03;5053384;28;20450;-54
2021/03/31 00:12:02;;;;;;;2.28;2.08;;;;;;;19.59;33.85;97087.53;5066627;28;20726;-56
2021/03/31 00:14:29;;;;;;;2.08;1.88;;;;;;;19.57;33.89;97084.25;5064578;28;20053;-55
2021/03/31 00:16:55;;;;;;;2.10;1.95;;;;;;;19.56;33.99;97088.88;5064870;28;20143;-56
2021/03/31 00:19:21;;;;;;;2.55;2.38;;;;;;;19.57;33.73;97084.25;5056779;28;20412;-55
2021/03/31 00:21:46;;;;;;;2.13;1.88;;;;;;;19.56;34.12;97085.34;5054613;28;20076;-57
2021/03/31 00:24:12;;;;;;;3.55;2.65;;;;;;;19.55;33.73;97080.97;5060943;28;20052;-52
2021/03/31 00:26:38;;;;;;;1.88;1.77;;;;;;;19.55;33.97;97080.97;5063594;28;20062;-55
2021/03/31 00:29:04;;;;;;;2.10;2.00;;;;;;;19.54;33.86;97079.34;5057952;28;20083;-56
2021/03/31 00:31:30;;;;;;;2.33;2.10;;;;;;;19.53;34.02;97081.22;5065297;28;20080;-50
2021/03/31 00:33:56;;;;;;;2.10;2.00;;;;;;;19.52;34.04;97081.50;5061309;28;20092;-53
2021/03/31 00:36:22;;;;;;;2.75;1.88;;;;;;;19.51;33.75;97077.94;5057107;28;20733;-54
2021/03/31 00:38:48;;;;;;;2.10;2.00;;;;;;;19.51;34.06;97079.84;5055837;28;20094;-56
2021/03/31 00:41:14;;;;;;;2.42;2.03;;;;;;;19.50;33.99;97070.06;5055064;28;20080;-53
2021/03/31 00:43:39;;;;;;;2.33;2.13;;;;;;;19.50;33.88;97075.50;5060734;28;20057;-56
2021/03/31 00:46:05;;;;;;;2.10;1.85;;;;;;;19.49;34.16;97076.56;5057433;28;20051;-57
2021/03/31 00:48:31;;;;;;;3.10;2.15;;;;;;;19.48;34.16;97069.50;5065733;28;20411;-55
2021/03/31 00:50:59;;;;;;;2.00;1.90;;;;;;;19.46;33.72;97066.22;5059620;28;20079;-53
2021/03/31 00:53:38;;;;;;;2.72;2.08;;;;;;;19.44;33.65;97067.28;5055741;28;20086;-54
2021/03/31 00:56:04;;;;;;;2.10;2.00;;;;;;;19.44;34.14;97059.16;5063806;28;20056;-56
2021/03/31 00:58:30;;;;;;;2.20;2.10;;;;;;;19.42;34.20;97060.50;5056694;28;20130;-56
2021/03/31 01:00:55;;;;;;;2.42;2.30;;;;;;;19.43;34.22;97056.69;5063210;28;20875;-54
2021/03/31 01:03:21;;;;;;;12.82;4.43;;;;;;;19.43;34.04;97052.09;5060779;28;20453;-55
2021/03/31 01:05:47;;;;;;;16.20;5.28;;;;;;;19.42;34.44;97049.63;5059115;28;20044;-56
2021/03/31 01:08:13;;;;;;;16.33;5.28;;;;;;;19.40;34.13;97055.31;5055034;28;20048;-55
2021/03/31 01:10:43;;;;;;;12.07;3.92;;;;;;;19.40;34.35;97060.75;5054903;28;20044;-52
2021/03/31 01:13:18;;;;;;;8.13;2.95;;;;;;;19.40;34.06;97054.50;5061946;28;20053;-57
2021/03/31 01:16:08;;;;;;;8.18;3.80;;;;;;;19.38;34.47;97054.75;5067562;28;20044;-56
2021/03/31 01:19:07;;;;;;;5.47;3.00;;;;;;;19.38;34.07;97045.78;5058113;28;20049;-56
2021/03/31 01:21:36;;;;;;;8.18;2.95;;;;;;;19.37;34.39;97053.13;5052823;28;20048;-54
2021/03/31 01:24:25;;;;;;;4.88;2.97;;;;;;;19.35;34.23;97047.13;5059177;28;20579;-54
2021/03/31 01:27:14;;;;;;;4.38;2.80;;;;;;;19.34;34.20;97044.66;5062786;28;20079;-55
2021/03/31 01:29:53;;;;;;;4.80;2.78;;;;;;;19.33;34.43;97038.41;5057832;28;20154;-49
2021/03/31 01:32:34;;;;;;;6.20;2.72;;;;;;;19.33;34.21;97041.13;5060213;28;20044;-55
2021/03/31 01:35:10;;;;;;;6.80;3.13;;;;;;;19.32;34.37;97038.66;5055892;28;20516;-53
2021/03/31 01:37:50;;;;;;;5.10;2.83;;;;;;;19.30;34.22;97030.78;5061527;28;20056;-54
2021/03/31 01:40:18;;;;;;;3.65;2.40;;;;;;;19.30;34.50;97029.97;5042740;28;20057;-53
2021/03/31 01:42:47;;;;;;;4.32;2.60;;;;;;;19.30;34.50;97025.34;5055280;28;20056;-55
2021/03/31 01:45:13;;;;;;;6.32;2.70;;;;;;;19.29;34.27;97029.16;5062487;28;20087;-54
2021/03/31 01:47:40;;;;;;;3.53;3.03;;;;;;;19.29;34.59;97023.72;5058779;28;20084;-56
2021/03/31 01:50:07;;;;;;;6.05;2.80;;;;;;;19.28;34.15;97027.50;5060179;28;20072;-56
2021/03/31 01:52:33;;;;;;;5.50;2.65;;;;;;;19.28;34.10;97027.50;5055332;28;20052;-55
2021/03/31 01:54:59;;;;;;;4.38;2.58;;;;;;;19.28;34.22;97023.97;5060400;28;20052;-57
2021/03/31 01:57:25;;;;;;;5.07;2.72;;;;;;;19.27;34.20;97017.72;5058713;28;20156;-55
2021/03/31 01:59:51;;;;;;;3.90;2.42;;;;;;;19.26;34.44;97018.78;5063386;28;20106;-54
2021/03/31 02:02:18;;;;;;;4.97;2.67;;;;;;;19.24;34.35;97012.81;5063054;28;20063;-55
2021/03/31 02:04:43;;;;;;;4.18;2.72;;;;;;;19.24;34.23;97018.22;5064076;28;20141;-52
2021/03/31 02:07:09;;;;;;;2.53;2.30;;;;;;;19.24;34.32;97021.78;5061145;28;20512;-54
2021/03/31 02:09:39;;;;;;;3.67;2.45;;;;;;;19.23;34.34;97019.31;5059835;28;20155;-54
2021/03/31 02:12:07;;;;;;;2.60;2.08;;;;;;;19.24;34.11;97015.50;5060603;28;20072;-56
2021/03/31 02:14:33;;;;;;;3.42;2.72;;;;;;;19.22;34.35;97012.25;5060858;28;20053;-55
2021/03/31 02:16:59;;;;;;;3.10;2.80;;;;;;;19.19;34.46;97002.72;5080373;28;20059;-49
2021/03/31 02:19:26;;;;;;;2.67;2.30;;;;;;;19.21;34.22;97005.19;5054844;28;21016;-54
2021/03/31 02:21:52;;;;;;;3.80;3.17;;;;;;;19.21;34.53;97003.28;5047445;28;20095;-52
2021/03/31 02:24:18;;;;;;;2.90;2.28;;;;;;;19.20;34.40;96998.94;5068363;28;20051;-55
2021/03/31 02:26:44;;;;;;;2.40;2.20;;;;;;;19.20;34.32;96998.09;5065096;28;20293;-55
2021/03/31 02:29:10;;;;;;;2.45;2.25;;;;;;;19.20;34.64;97000.81;5052187;28;20175;-55
2021/03/31 02:31:36;;;;;;;3.38;2.50;;;;;;;19.18;34.19;96995.66;5050780;28;20055;-54
2021/03/31 02:34:03;;;;;;;2.58;2.38;;;;;;;19.18;34.41;96989.41;5062722;28;20129;-55
2021/03/31 02:36:29;;;;;;;3.20;2.40;;;;;;;19.15;34.47;96984.50;5066262;28;20059;-55
2021/03/31 02:38:55;;;;;;;2.97;2.13;;;;;;;19.18;33.98;96989.41;5065416;28;20202;-56
2021/03/31 02:41:21;;;;;;;2.78;2.50;;;;;;;19.16;34.30;96989.69;5060487;28;20135;-54
2021/03/31 02:43:48;;;;;;;2.35;2.15;;;;;;;19.16;34.59;96980.72;5061918;28;20078;-54
2021/03/31 02:46:19;;;;;;;4.00;2.33;;;;;;;19.15;34.27;96990.75;5050014;28;20063;-51
2021/03/31 02:48:45;;;;;;;3.88;2.95;;;;;;;19.14;34.15;96980.97;5051519;28;20056;-52
2021/03/31 02:51:11;;;;;;;3.30;2.10;;;;;;;19.14;34.04;96983.69;5065152;28;20139;-55
2021/03/31 02:53:37;;;;;;;2.97;2.22;;;;;;;19.13;34.15;96981.22;5060429;28;20056;-56
2021/03/31 02:56:04;;;;;;;2.92;2.38;;;;;;;19.13;34.41;96984.75;5048046;28;20507;-56
2021/03/31 02:58:29;;;;;;;2.17;2.08;;;;;;;19.12;34.28;96983.13;5055223;28;20059;-53
2021/03/31 03:00:55;;;;;;;2.50;2.30;;;;;;;19.11;34.24;96975.22;5066502;28;20056;-52
2021/03/31 03:03:20;;;;;;;4.97;2.80;;;;;;;19.09;34.15;96975.47;5048257;28;20076;-49
2021/03/31 03:05:46;;;;;;;2.42;2.22;;;;;;;19.11;34.38;96975.22;5065465;28;20044;-52
2021/03/31 03:08:12;;;;;;;2.25;2.05;;;;;;;19.10;34.34;96979.03;5062866;28;20048;-56
2021/03/31 03:10:37;;;;;;;2.15;1.95;;;;;;;19.08;34.45;96976.56;5042693;28;20136;-56
2021/03/31 03:13:03;;;;;;;3.15;2.38;;;;;;;19.09;34.08;96974.66;5061021;28;20584;-55
2021/03/31 03:15:29;;;;;;;3.88;2.88;;;;;;;19.08;34.47;96978.47;5053761;28;20491;-56
2021/03/31 03:17:55;;;;;;;3.15;2.63;;;;;;;19.08;34.19;96973.06;5069193;28;20048;-56
2021/03/31 03:20:21;;;;;;;2.78;2.58;;;;;;;19.07;34.38;96974.91;5067376;28;20060;-57
2021/03/31 03:22:52;;;;;;;2.33;2.13;;;;;;;19.06;34.33;96976.00;5061900;28;20055;-54
2021/03/31 03:25:19;;;;;;;2.53;2.03;;;;;;;19.06;34.02;96975.22;5064592;28;20158;-56
2021/03/31 03:27:45;;;;;;;2.65;2.50;;;;;;;19.05;34.36;96979.78;5063118;28;20056;-55
2021/03/31 03:30:15;;;;;;;2.38;2.17;;;;;;;19.04;33.95;96984.41;5064446;28;20052;-51
2021/03/31 03:32:42;;;;;;;2.22;2.00;;;;;;;19.03;34.08;96982.78;5063452;28;20103;-55
2021/03/31 03:35:10;;;;;;;2.75;2.17;;;;;;;19.03;34.04;96981.94;5059894;28;20064;-55
2021/03/31 03:37:36;;;;;;;1.85;1.75;;;;;;;19.04;34.18;96986.31;5064151;28;20400;-53
2021/03/31 03:40:03;;;;;;;2.70;2.25;;;;;;;19.02;34.51;96983.84;5059353;28;20056;-55
2021/03/31 03:42:29;;;;;;;2.22;2.08;;;;;;;19.02;34.05;96983.84;5057012;28;20049;-55
2021/03/31 03:44:55;;;;;;;2.38;2.22;;;;;;;19.02;34.17;96983.84;5055765;28;20060;-55
2021/03/31 03:47:20;;;;;;;3.90;2.17;;;;;;;19.01;33.96;96976.78;5032086;28;20048;-55
2021/03/31 03:49:46;;;;;;;3.45;2.38;;;;;;;19.00;34.07;96977.88;5064420;28;20060;-54
2021/03/31 03:52:12;;;;;;;2.30;2.10;;;;;;;19.00;34.26;96972.44;5066246;28;20037;-57
2021/03/31 03:54:38;;;;;;;1.90;1.80;;;;;;;19.00;34.36;96977.06;5061894;28;20056;-55
2021/03/31 03:57:05;;;;;;;2.55;2.15;;;;;;;19.00;34.13;96987.91;5062667;28;20397;-55
2021/03/31 03:59:30;;;;;;;2.78;2.10;;;;;;;18.97;34.08;96978.41;5060015;28;20106;-52
2021/03/31 04:01:56;;;;;;;2.17;1.98;;;;;;;18.99;34.17;96975.41;5064392;28;20071;-55
2021/03/31 04:04:23;;;;;;;2.22;2.00;;;;;;;18.99;34.06;96978.13;5055741;28;20052;-56
2021/03/31 04:06:49;;;;;;;3.35;2.13;;;;;;;18.98;34.33;96976.50;5058798;28;20660;-53
2021/03/31 04:09:14;;;;;;;2.60;2.03;;;;;;;18.96;34.26;96971.31;5061676;28;20056;-58
2021/03/31 04:11:44;;;;;;;2.20;2.00;;;;;;;18.93;34.15;96965.56;5058336;28;20568;-55
2021/03/31 04:14:10;;;;;;;2.33;2.22;;;;;;;18.95;34.34;96969.69;5062324;28;20736;-55
2021/03/31 04:16:36;;;;;;;3.00;2.55;;;;;;;18.94;34.11;96970.75;5064217;28;20122;-53
2021/03/31 04:19:23;;;;;;;2.72;2.10;;;;;;;18.92;34.08;96970.19;5067263;28;20080;-56
2021/03/31 04:21:48;;;;;;;2.08;1.98;;;;;;;18.94;34.34;96967.22;5055637;28;20052;-54
2021/03/31 04:24:14;;;;;;;2.55;2.28;;;;;;;18.92;34.28;96972.09;5062683;28;20435;-55
2021/03/31 04:26:40;;;;;;;2.30;2.10;;;;;;;18.91;34.02;96967.72;5063289;28;20052;-55
2021/03/31 04:29:07;;;;;;;2.13;1.92;;;;;;;18.90;34.22;96971.53;5058946;28;20044;-56
2021/03/31 04:31:33;;;;;;;2.47;2.17;;;;;;;18.90;34.26;96966.09;5048396;28;20098;-53
2021/03/31 04:33:59;;;;;;;3.85;2.20;;;;;;;18.88;34.26;96966.34;5060655;28;20037;-55
2021/03/31 04:36:27;;;;;;;2.20;2.00;;;;;;;18.89;34.00;96964.47;5045119;28;20049;-53
2021/03/31 04:38:53;;;;;;;2.13;2.03;;;;;;;18.89;33.98;96961.75;5046094;28;20044;-55
2021/03/31 04:41:19;;;;;;;2.08;1.83;;;;;;;18.88;34.25;96960.94;5057877;28;20056;-55
2021/03/31 04:43:45;;;;;;;1.80;1.70;;;;;;;18.87;34.08;96962.00;5060046;28;20185;-55
2021/03/31 04:46:11;;;;;;;2.28;2.08;;;;;;;18.87;33.92;96958.50;5056966;28;20036;-57
2021/03/31 04:48:37;;;;;;;3.75;2.08;;;;;;;18.86;33.87;96954.13;5065369;28;20214;-58
2021/03/31 04:51:03;;;;;;;1.83;1.73;;;;;;;18.85;33.96;96961.44;5058763;28;20065;-51
2021/03/31 04:53:29;;;;;;;2.03;1.80;;;;;;;18.84;34.22;96962.50;5059848;28;20657;-55
2021/03/31 04:55:55;;;;;;;2.20;2.03;;;;;;;18.84;33.94;96965.22;5059473;28;20566;-54
2021/03/31 04:58:21;;;;;;;2.33;2.15;;;;;;;18.83;34.27;96956.28;5057676;28;20040;-55
2021/03/31 05:00:47;;;;;;;2.38;2.17;;;;;;;18.81;34.14;96954.91;5060470;28;20121;-53
2021/03/31 05:03:13;;;;;;;2.03;1.92;;;;;;;18.81;33.97;96955.72;5061144;28;20409;-55
2021/03/31 05:05:39;;;;;;;2.10;2.00;;;;;;;18.81;33.89;96946.75;5059459;28;20051;-53
2021/03/31 05:08:05;;;;;;;2.20;2.00;;;;;;;18.79;33.92;96949.72;5061277;28;20398;-50
2021/03/31 05:10:31;;;;;;;2.35;1.98;;;;;;;18.79;34.21;96947.00;5056605;28;20057;-55
2021/03/31 05:12:56;;;;;;;2.05;1.95;;;;;;;18.79;34.17;96954.34;5058654;28;20098;-52
2021/03/31 05:15:22;;;;;;;2.38;2.00;;;;;;;18.78;34.09;96953.53;5052860;28;20555;-52
2021/03/31 05:17:48;;;;;;;2.05;1.95;;;;;;;18.79;34.56;96946.19;5063506;28;20538;-52
2021/03/31 05:20:15;;;;;;;2.20;2.10;;;;;;;18.77;34.66;96941.00;5061321;28;20053;-54
2021/03/31 05:22:40;;;;;;;2.10;2.00;;;;;;;18.77;34.79;96948.31;5053448;28;20136;-56
2021/03/31 05:25:07;;;;;;;2.85;2.55;;;;;;;18.78;34.63;96941.81;5055679;28;20051;-56
2021/03/31 05:27:33;;;;;;;2.00;1.90;;;;;;;18.76;34.57;96936.66;5055462;28;20145;-56
2021/03/31 05:29:59;;;;;;;2.00;1.90;;;;;;;18.76;35.03;96941.25;5061385;28;20055;-51
2021/03/31 05:32:25;;;;;;;2.10;2.00;;;;;;;18.75;35.24;96937.72;5063453;28;20057;-53
2021/03/31 05:34:51;;;;;;;1.95;1.85;;;;;;;18.76;34.79;96942.09;5065175;28;20071;-56
2021/03/31 05:37:17;;;;;;;2.25;2.13;;;;;;;18.76;34.92;96943.97;5058834;28;20048;-54
2021/03/31 05:39:43;;;;;;;2.00;1.85;;;;;;;18.75;35.06;96943.16;5056188;28;20341;-55
2021/03/31 05:42:09;;;;;;;1.90;1.80;;;;;;;18.75;35.08;96939.63;5055587;28;20044;-51
2021/03/31 05:44:35;;;;;;;1.92;1.83;;;;;;;18.75;35.27;96936.91;5057034;28;20512;-55
2021/03/31 05:47:02;;;;;;;1.88;1.77;;;;;;;18.75;35.00;96947.75;5059582;28;20535;-54
2021/03/31 05:49:29;;;;;;;2.15;2.00;;;;;;;18.73;35.13;96947.19;5055248;28;20063;-50
2021/03/31 05:51:55;;;;;;;2.88;2.10;;;;;;;18.72;35.08;96949.09;5062977;28;20099;-52
2021/03/31 05:54:21;;;;;;;2.20;1.98;;;;;;;18.73;35.48;96944.50;5059405;28;20151;-52
2021/03/31 05:56:47;;;;;;;2.15;1.90;;;;;;;18.71;35.38;96950.16;5059963;28;20459;-56
2021/03/31 05:59:13;;;;;;;2.03;1.92;;;;;;;18.71;34.81;96943.94;5060067;28;20434;-55
2021/03/31 06:01:39;;;;;;;1.88;1.77;;;;;;;18.70;35.23;96943.13;5061078;28;20079;-54
2021/03/31 06:04:05;;;;;;;2.15;1.95;;;;;;;18.71;35.40;96941.22;5066350;28;20563;-55
2021/03/31 06:06:31;;;;;;;1.95;1.83;;;;;;;18.71;34.97;96941.22;5038533;28;20048;-54
2021/03/31 06:08:57;;;;;;;2.22;2.03;;;;;;;18.70;34.99;96944.97;5058697;28;20531;-52
2021/03/31 06:11:23;;;;;;;1.70;1.60;;;;;;;18.70;35.21;96942.28;5061414;28;20125;-53
2021/03/31 06:13:49;;;;;;;1.88;1.77;;;;;;;18.69;35.38;96948.78;5063736;28;20056;-52
2021/03/31 06:16:37;;;;;;;2.22;2.13;;;;;;;18.68;35.34;96941.72;5061084;28;20044;-54
2021/03/31 06:19:19;;;;;;;2.92;2.08;;;;;;;18.68;35.56;96941.72;5055913;28;20589;-53
2021/03/31 06:24:45;;;;;;;2.55;2.30;;;;;;;18.68;35.50;96936.28;5057110;28;20543;-50
2021/03/31 06:27:12;;;;;;;2.75;2.30;;;;;;;18.68;35.76;96939.00;5057103;28;20103;-52
2021/03/31 06:30:02;;;;;;;2.45;1.88;;;;;;;18.69;35.81;96940.66;5051841;28;20109;-52
2021/03/31 06:32:28;;;;;;;3.10;1.75;;;;;;;18.70;35.53;96945.81;5055225;28;20155;-56
2021/03/31 06:34:56;;;;;;;2.20;2.03;;;;;;;18.71;35.85;96935.78;5043757;28;20053;-53
2021/03/31 06:37:28;;;;;;;1.77;1.65;;;;;;;18.71;35.38;96938.50;5052450;28;20045;-56
2021/03/31 06:39:54;;;;;;;2.20;2.00;;;;;;;18.70;35.81;96937.69;5056969;28;20408;-54
2021/03/31 06:42:23;;;;;;;2.42;1.70;;;;;;;18.72;35.76;96938.25;5058335;28;20056;-55
2021/03/31 06:47:29;;;;;;;2.35;1.70;;;;;;;18.73;35.62;96937.16;5062365;28;20135;-54
2021/03/31 06:49:55;;;;;;;1.80;1.65;;;;;;;18.74;35.86;96932.53;5052632;28;20247;-54
2021/03/31 06:52:20;;;;;;;2.67;2.10;;;;;;;18.75;35.68;96937.72;5059238;28;20070;-55
2021/03/31 06:54:51;;;;;;;3.15;2.38;;;;;;;18.74;35.85;96927.94;5057058;28;20539;-54
2021/03/31 06:57:27;;;;;;;2.10;1.98;;;;;;;18.75;35.59;96931.47;5055249;28;20074;-55
2021/03/31 06:59:59;;;;;;;2.33;2.13;;;;;;;18.76;35.80;96935.81;5072601;28;20124;-55
2021/03/31 07:02:28;;;;;;;2.17;1.90;;;;;;;18.76;35.89;96933.09;5056413;28;20102;-56
2021/03/31 07:04:55;;;;;;;2.38;2.28;;;;;;;18.77;35.86;96932.03;5057096;28;20127;-54
2021/03/31 07:07:29;;;;;;;1.90;1.80;;;;;;;18.77;35.51;96929.31;5056621;28;20044;-52
2021/03/31 07:10:09;;;;;;;2.65;1.90;;;;;;;18.79;35.85;96932.63;5060832;28;20053;-54
2021/03/31 07:12:55;;;;;;;2.15;1.90;;;;;;;18.77;35.66;96923.91;5065633;28;20083;-56
2021/03/31 07:15:25;;;;;;;1.80;1.70;;;;;;;18.78;35.78;96922.81;5055707;28;20048;-56
2021/03/31 07:17:56;;;;;;;2.28;2.08;;;;;;;18.78;35.72;96920.97;5063904;28;20145;-55
2021/03/31 07:20:26;;;;;;;2.10;1.85;;;;;;;18.79;35.61;96927.22;5058317;28;20057;-52
2021/03/31 07:22:53;;;;;;;2.03;1.83;;;;;;;18.81;35.60;96930.47;5062620;28;20087;-56
2021/03/31 07:25:19;;;;;;;2.00;1.90;;;;;;;18.80;35.44;96923.41;5056868;28;20072;-54
2021/03/31 07:27:46;;;;;;;2.13;1.90;;;;;;;18.81;36.13;96922.34;5061739;28;20138;-56
2021/03/31 07:30:15;;;;;;;2.63;2.42;;;;;;;18.82;36.03;96923.97;5063461;28;20059;-53
2021/03/31 07:32:47;;;;;;;2.13;1.95;;;;;;;18.82;35.96;96921.25;5059455;28;20164;-56
2021/03/31 07:35:13;;;;;;;1.90;1.80;;;;;;;18.82;35.56;96916.66;5066776;28;20104;-55
2021/03/31 07:37:39;;;;;;;1.83;1.73;;;;;;;18.82;35.58;96915.81;5061956;28;20155;-54
2021/03/31 07:40:07;;;;;;;2.78;2.05;;;;;;;18.83;36.10;96928.31;5058751;28;20271;-55
2021/03/31 07:42:33;;;;;;;2.13;1.88;;;;;;;18.84;35.67;96924.53;5061599;28;20049;-55
2021/03/31 07:45:00;;;;;;;2.22;2.00;;;;;;;18.84;35.94;96927.22;5060876;28;20087;-53
2021/03/31 07:47:26;;;;;;;2.33;1.75;;;;;;;18.84;36.06;96929.94;5062805;28;20044;-54
2021/03/31 07:49:53;;;;;;;3.00;2.10;;;;;;;18.86;35.92;96933.22;5046674;28;20052;-54
2021/03/31 07:52:19;;;;;;;2.88;1.90;;;;;;;18.87;36.21;96924.00;5063734;28;20052;-53
2021/03/31 07:54:45;;;;;;;1.85;1.75;;;;;;;18.89;36.03;96923.75;5059101;28;20555;-56
2021/03/31 07:57:28;;;;;;;2.40;2.20;;;;;;;18.90;35.97;96930.81;5059107;28;20512;-55
2021/03/31 07:59:54;;;;;;;2.78;1.98;;;;;;;18.91;35.97;96927.84;5058142;28;20052;-53
2021/03/31 08:02:21;;;;;;;3.33;2.30;;;;;;;18.91;35.72;96927.84;5067544;28;20055;-55
2021/03/31 08:04:47;;;;;;;2.53;1.85;;;;;;;18.91;35.90;96930.56;5065732;28;20051;-57
2021/03/31 08:07:23;;;;;;;7.90;4.03;;;;;;;18.92;35.63;96936.81;5061896;28;20059;-57
2021/03/31 08:09:49;;;;;;;5.35;2.20;;;;;;;18.91;35.74;96924.28;5066581;28;20041;-57
2021/03/31 08:12:29;;;;;;;6.53;2.53;;;;;;;18.89;35.69;96927.28;5065064;28;20056;-59
2021/03/31 08:14:59;;;;;;;3.50;2.63;;;;;;;18.89;35.65;96927.28;5061568;28;20426;-54
2021/03/31 08:17:25;;;;;;;5.80;2.47;;;;;;;18.89;35.80;96929.19;5058171;28;20594;-57
2021/03/31 08:19:55;;;;;;;4.35;2.60;;;;;;;18.88;35.69;96936.50;5047350;28;20057;-56
2021/03/31 08:22:23;;;;;;;3.97;2.65;;;;;;;18.86;36.05;96933.22;5058182;28;20065;-55
2021/03/31 08:24:53;;;;;;;2.92;2.55;;;;;;;18.86;35.83;96932.41;5066078;28;20475;-56
2021/03/31 08:27:19;;;;;;;4.40;3.05;;;;;;;18.86;35.86;96932.41;5064191;28;20053;-54
2021/03/31 08:29:48;;;;;;;4.38;2.53;;;;;;;18.87;36.25;96934.88;5063445;28;20075;-55
2021/03/31 08:32:14;;;;;;;5.38;2.70;;;;;;;18.86;36.03;96938.66;5057486;28;20048;-56
2021/03/31 08:34:42;;;;;;;5.05;2.78;;;;;;;18.86;36.08;96930.50;5062498;28;20036;-56
2021/03/31 08:37:17;;;;;;;6.00;2.78;;;;;;;18.88;36.31;96936.50;5065663;28;20080;-54
2021/03/31 08:39:43;;;;;;;6.75;3.03;;;;;;;18.90;36.01;96938.97;5059931;28;20294;-56
2021/03/31 08:42:08;;;;;;;5.50;2.72;;;;;;;18.93;36.17;96933.84;5041262;28;20071;-56
2021/03/31 08:44:36;;;;;;;6.13;2.80;;;;;;;18.96;36.44;96935.22;5064993;28;20166;-57
2021/03/31 08:47:12;;;;;;;10.00;3.63;;;;;;;18.98;36.00;96936.56;5061451;28;20110;-57
2021/03/31 08:49:38;;;;;;;5.80;3.58;;;;;;;19.01;35.97;96936.06;5063456;28;20565;-55
2021/03/31 08:52:06;;;;;;;7.97;3.72;;;;;;;19.04;35.96;96937.44;5062670;28;20052;-56
2021/03/31 08:54:50;;;;;;;8.60;4.45;;;;;;;19.07;36.02;96938.81;5062296;28;20130;-54
2021/03/31 08:57:23;;;;;;;6.25;3.80;;;;;;;19.07;35.80;96936.09;5059529;28;20056;-53
2021/03/31 08:59:50;;;;;;;11.45;3.92;;;;;;;19.09;35.94;96931.22;5064211;28;20564;-56
2021/03/31 09:02:26;;;;;;;10.85;4.70;;;;;;;19.11;35.74;96934.50;5061214;28;20052;-56
2021/03/31 09:04:53;;;;;;;7.50;3.72;;;;;;;19.13;35.95;96941.31;5060110;28;20075;-54
2021/03/31 09:07:19;;;;;;;13.95;4.43;;;;;;;19.14;35.86;96936.72;5060004;28;20128;-57
2021/03/31 09:09:45;;;;;;;8.95;4.72;;;;;;;19.16;36.14;96942.69;5067045;28;20064;-55
2021/03/31 09:12:18;;;;;;;12.60;4.25;;;;;;;19.17;35.92;96934.28;5068009;28;20083;-55
2021/03/31 09:14:48;;;;;;;6.57;3.75;;;;;;;19.19;35.78;96934.84;5059470;28;20049;-55
2021/03/31 09:17:28;;;;;;;11.25;4.22;;;;;;;19.21;35.85;96937.28;5066111;28;20044;-53
2021/03/31 09:19:56;;;;;;;10.20;4.22;;;;;;;19.22;35.73;96942.47;5063732;28;20040;-56
2021/03/31 09:22:23;;;;;;;8.85;3.95;;;;;;;19.23;35.51;96938.66;5063139;28;20056;-57
2021/03/31 09:24:51;;;;;;;7.40;4.20;;;;;;;19.26;35.49;96931.06;5059348;28;20050;-52
2021/03/31 09:27:18;;;;;;;10.95;4.45;;;;;;;19.26;35.71;96926.44;5063775;28;20509;-57
2021/03/31 09:29:45;;;;;;;8.05;4.30;;;;;;;19.29;35.77;96925.94;5054821;28;20060;-55
2021/03/31 09:32:14;;;;;;;9.75;4.18;;;;;;;19.31;35.50;96929.22;5062767;28;20044;-51
2021/03/31 09:34:40;;;;;;;7.22;3.83;;;;;;;19.32;35.51;96928.13;5061666;28;20045;-57
2021/03/31 09:37:11;;;;;;;8.82;3.70;;;;;;;19.33;35.57;96921.63;5064736;28;20051;-55
2021/03/31 09:39:58;;;;;;;6.93;3.75;;;;;;;19.35;35.84;96919.47;5059246;28;20041;-55
2021/03/31 09:42:31;;;;;;;7.38;3.28;;;;;;;19.37;35.60;96922.75;5060541;28;20074;-54
2021/03/31 09:44:57;;;;;;;6.28;3.28;;;;;;;19.39;35.61;96927.91;5060465;28;20135;-55
2021/03/31 09:47:24;;;;;;;7.07;3.10;;;;;;;19.41;35.77;96918.41;5060141;28;20061;-57
2021/03/31 09:49:50;;;;;;;7.25;3.30;;;;;;;19.46;35.99;96919.53;5057923;28;20059;-55
2021/03/31 09:52:16;;;;;;;7.57;3.40;;;;;;;19.49;35.97;96913.56;5057659;28;20189;-55
2021/03/31 09:54:46;;;;;;;7.78;3.55;;;;;;;19.53;36.07;96909.22;5063207;28;20045;-56
2021/03/31 09:57:14;;;;;;;8.18;3.42;;;;;;;19.57;36.18;96911.16;5048168;28;20048;-55
2021/03/31 09:59:40;;;;;;;6.60;3.40;;;;;;;19.60;36.46;96907.91;5063788;28;20040;-57
2021/03/31 10:02:08;;;;;;;4.05;2.72;;;;;;;19.64;36.23;96908.22;5057670;28;20112;-55
2021/03/31 10:04:37;;;;;;;6.68;3.70;;;;;;;19.69;36.28;96905.50;5062460;28;20466;-55
2021/03/31 10:07:18;;;;;;;5.68;3.25;;;;;;;19.71;36.34;96899.84;5060047;28;20056;-54
2021/03/31 10:09:46;;;;;;;5.53;3.53;;;;;;;19.79;36.46;96905.59;5065454;28;20048;-54
2021/03/31 10:12:13;;;;;;;5.68;3.05;;;;;;;19.83;36.19;96898.53;5059482;28;20047;-53
2021/03/31 10:14:46;;;;;;;5.75;4.00;;;;;;;19.87;36.00;96901.53;5058734;28;20044;-55
2021/03/31 10:17:12;;;;;;;5.60;2.67;;;;;;;19.92;35.83;96898.03;5058244;28;20049;-53
2021/03/31 10:19:38;;;;;;;3.22;2.92;;;;;;;19.96;36.11;96894.50;5059183;28;20052;-55
2021/03/31 10:22:07;;;;;;;8.90;3.53;;;;;;;19.99;35.96;96899.38;5057493;28;20060;-55
2021/03/31 10:24:43;;;;;;;3.47;2.90;;;;;;;20.01;35.66;96891.78;5070540;28;20044;-54
2021/03/31 10:27:10;;;;;;;4.45;3.40;;;;;;;20.07;35.55;96886.38;5062021;28;20179;-55
2021/03/31 10:29:46;;;;;;;7.05;3.70;;;;;;;20.10;36.13;96886.66;5054541;28;20045;-55
2021/03/31 10:32:15;;;;;;;4.68;3.25;;;;;;;20.14;36.40;96890.47;5062400;28;20044;-56
2021/03/31 10:34:43;;;;;;;6.00;4.20;;;;;;;20.19;36.05;96881.50;5062911;28;20052;-57
2021/03/31 10:37:49;;;;;;;4.50;3.05;;;;;;;20.22;35.93;96889.94;5063751;28;20053;-55
2021/03/31 10:54:14;;;;;;;4.55;2.88;;;;;;;20.43;35.40;96877.19;5015686;28;20053;-55
2021/03/31 10:56:50;;;;;;;3.80;2.90;;;;;;;20.47;35.44;96882.91;5068277;28;20079;-55
2021/03/31 10:59:15;;;;;;;9.15;3.00;;;;;;;20.50;35.10;96882.38;5062210;28;20055;-56
2021/03/31 11:01:41;;;;;;;3.58;3.10;;;;;;;20.51;34.85;96878.53;5064721;28;20060;-56
2021/03/31 11:04:08;;;;;;;3.58;2.95;;;;;;;20.54;35.05;96875.31;5066142;28;20519;-54
2021/03/31 11:06:33;;;;;;;4.55;2.92;;;;;;;20.57;34.85;96865.78;5062970;28;20052;-54
2021/03/31 11:08:59;;;;;;;3.30;2.85;;;;;;;20.59;34.86;96866.34;5065118;28;20130;-53
2021/03/31 11:11:25;;;;;;;4.07;2.80;;;;;;;20.61;34.77;96862.25;5064150;28;20057;-55
2021/03/31 11:13:51;;;;;;;3.72;3.15;;;;;;;20.64;34.52;96864.44;5062891;28;20083;-55
2021/03/31 11:16:17;;;;;;;3.47;3.13;;;;;;;20.68;34.68;96861.16;5062159;28;20086;-57
2021/03/31 11:18:54;;;;;;;3.45;2.97;;;;;;;20.70;34.59;96850.81;5064497;28;20052;-55
2021/03/31 11:27:08;;;;;;;3.42;3.13;;;;;;;20.78;34.52;96859.25;4998673;28;20112;-54
2021/03/31 11:29:34;;;;;;;6.95;3.58;;;;;;;20.80;34.52;96857.06;5034892;28;20052;-55
2021/03/31 11:32:00;;;;;;;3.05;2.75;;;;;;;20.82;34.58;96848.66;5063029;28;20110;-57
2021/03/31 11:34:26;;;;;;;4.55;2.85;;;;;;;20.85;34.48;96850.81;5063306;28;20130;-56
2021/03/31 11:36:53;;;;;;;5.47;2.78;;;;;;;20.87;34.37;96840.47;5064416;28;20460;-55
2021/03/31 11:39:19;;;;;;;5.07;3.42;;;;;;;20.89;34.26;96832.84;5059895;28;20044;-55
2021/03/31 11:41:45;;;;;;;3.60;2.83;;;;;;;20.93;34.43;96835.81;5061343;28;20052;-55
2021/03/31 11:44:11;;;;;;;3.60;3.30;;;;;;;20.93;34.17;96825.75;5064155;28;20044;-55
2021/03/31 11:46:37;;;;;;;4.78;2.88;;;;;;;20.94;34.47;96830.13;5062355;28;20136;-55
2021/03/31 11:49:03;;;;;;;4.72;2.92;;;;;;;20.95;34.45;96829.00;5060570;28;20543;-57
2021/03/31 11:51:28;;;;;;;5.57;3.50;;;;;;;20.96;34.25;96830.66;5060585;28;20090;-56
2021/03/31 11:53:54;;;;;;;4.40;2.88;;;;;;;20.97;34.25;96821.38;5064147;28;20464;-52
2021/03/31 11:56:20;;;;;;;3.13;2.53;;;;;;;20.97;34.40;96810.50;5053232;28;20508;-54
2021/03/31 11:58:46;;;;;;;5.50;2.72;;;;;;;20.97;34.63;96807.75;5064582;28;20131;-55
2021/03/31 12:01:12;;;;;;;2.90;2.67;;;;;;;20.98;34.50;96806.69;5057325;28;20127;-56
2021/03/31 12:03:37;;;;;;;3.47;2.63;;;;;;;20.99;34.42;96804.78;5061391;28;20045;-55
2021/03/31 12:06:04;;;;;;;3.40;2.72;;;;;;;21.00;34.53;96795.53;5056131;28;20053;-55